TimeMDT,TemperatureF,Dew PointF,Humidity,Sea Level PressureIn,VisibilityMPH,Wind Direction,Wind SpeedMPH,Gust SpeedMPH,PrecipitationIn,Events,Conditions,WindDirDegrees,DateUTC
12:53 AM,61.0,24.1,24,29.87,10.0,WNW,8.1,-,N/A,,Clear,290,2012-10-06 06:53:00
1:53 AM,59.0,26.1,28,29.88,10.0,West,6.9,-,N/A,,Clear,270,2012-10-06 07:53:00
2:53 AM,57.0,27.0,32,29.87,10.0,Calm,Calm,-,N/A,,Clear,0,2012-10-06 08:53:00
3:53 AM,57.0,28.0,33,29.86,10.0,WSW,8.1,-,N/A,,Clear,250,2012-10-06 09:53:00
4:53 AM,60.1,28.0,30,29.86,10.0,West,8.1,-,N/A,,Clear,270,2012-10-06 10:53:00
5:53 AM,57.0,28.9,34,29.88,10.0,West,8.1,-,N/A,,Clear,280,2012-10-06 11:53:00
6:53 AM,55.0,30.0,38,29.91,10.0,West,6.9,-,N/A,,Clear,280,2012-10-06 12:53:00
8:53 AM,63.0,30.9,30,29.94,10.0,Calm,Calm,-,N/A,,Clear,0,2012-10-06 14:53:00
9:53 AM,64.0,32.0,30,29.95,10.0,SSW,3.5,-,N/A,,Clear,210,2012-10-06 15:53:00
10:53 AM,75.9,30.9,19,29.91,10.0,West,5.8,-,N/A,,Clear,260,2012-10-06 16:53:00
11:53 AM,80.1,30.0,16,29.88,10.0,Variable,5.8,-,N/A,,Clear,0,2012-10-06 17:53:00
12:53 PM,81.0,28.0,14,29.85,10.0,WSW,13.8,-,N/A,,Clear,250,2012-10-06 18:53:00
1:53 PM,82.0,27.0,13,29.81,10.0,West,10.4,20.7,N/A,,Clear,280,2012-10-06 19:53:00
2:53 PM,82.0,30.0,15,29.79,10.0,Variable,6.9,17.3,N/A,,Clear,0,2012-10-06 20:53:00
3:53 PM,82.9,28.0,14,29.77,10.0,West,15.0,23.0,N/A,,Clear,270,2012-10-06 21:53:00
4:53 PM,82.0,27.0,13,29.76,10.0,West,10.4,19.6,N/A,,Clear,280,2012-10-06 22:53:00
5:53 PM,80.1,28.0,15,29.76,10.0,West,11.5,-,N/A,,Clear,260,2012-10-06 23:53:00
6:53 PM,78.1,24.1,14,29.78,10.0,West,9.2,-,N/A,,Clear,280,2012-10-07 00:53:00
7:53 PM,72.0,26.1,18,29.81,10.0,WNW,5.8,-,N/A,,Clear,290,2012-10-07 01:53:00
8:53 PM,69.1,28.0,22,29.82,10.0,WNW,3.5,-,N/A,,Clear,300,2012-10-07 02:53:00
9:53 PM,62.1,25.0,24,29.85,10.0,South,6.9,-,N/A,,Clear,180,2012-10-07 03:53:00
11:53 PM,60.1,24.1,25,29.82,10.0,WSW,5.8,-,N/A,,Clear,240,2012-10-07 05:53:00